sensor_id;sensor_type;location;lat;lon;timestamp;temperature;humidity
23637;DHT22;11995;50.842;4.456;2022-11-10T00:02:25;11.20;99.90
23637;DHT22;11995;50.842;4.456;2022-11-10T00:04:52;11.10;99.90
23637;DHT22;11995;50.842;4.456;2022-11-10T00:07:28;11.20;99.90
23637;DHT22;11995;50.842;4.456;2022-11-10T00:09:49;11.20;99.90
23637;DHT22;11995;50.842;4.456;2022-11-10T00:12:18;11.20;99.90
23637;DHT22;11995;50.842;4.456;2022-11-10T00:14:45;11.10;99.90
23637;DHT22;11995;50.842;4.456;2022-11-10T00:17:31;11.10;99.90
23637;DHT22;11995;50.842;4.456;2022-11-10T00:19:58;11.00;99.90
23637;DHT22;11995;50.842;4.456;2022-11-10T00:22:24;11.10;99.90
23637;DHT22;11995;50.842;4.456;2022-11-10T00:24:53;11.10;99.90
23637;DHT22;11995;50.842;4.456;2022-11-10T00:27:20;11.10;99.90
23637;DHT22;11995;50.842;4.456;2022-11-10T00:29:48;11.10;99.90
23637;DHT22;11995;50.842;4.456;2022-11-10T00:32:14;11.10;99.90
23637;DHT22;11995;50.842;4.456;2022-11-10T00:34:42;11.20;99.90
23637;DHT22;11995;50.842;4.456;2022-11-10T00:37:11;11.30;99.90
23637;DHT22;11995;50.842;4.456;2022-11-10T00:39:39;11.40;99.90
23637;DHT22;11995;50.842;4.456;2022-11-10T00:42:10;11.20;99.90
23637;DHT22;11995;50.842;4.456;2022-11-10T00:44:39;11.20;99.90
23637;DHT22;11995;50.842;4.456;2022-11-10T00:49:37;11.20;99.90
23637;DHT22;11995;50.842;4.456;2022-11-10T00:52:06;11.10;99.90
23637;DHT22;11995;50.842;4.456;2022-11-10T00:54:32;11.10;99.90
23637;DHT22;11995;50.842;4.456;2022-11-10T00:57:00;10.90;99.90
23637;DHT22;11995;50.842;4.456;2022-11-10T00:59:27;10.90;99.90
23637;DHT22;11995;50.842;4.456;2022-11-10T01:01:54;11.00;99.90
23637;DHT22;11995;50.842;4.456;2022-11-10T01:04:21;11.10;99.90
23637;DHT22;11995;50.842;4.456;2022-11-10T01:06:48;11.20;99.90
23637;DHT22;11995;50.842;4.456;2022-11-10T01:09:17;11.20;99.90
23637;DHT22;11995;50.842;4.456;2022-11-10T01:11:44;11.10;99.90
23637;DHT22;11995;50.842;4.456;2022-11-10T01:14:13;11.20;99.90
23637;DHT22;11995;50.842;4.456;2022-11-10T01:16:40;11.30;99.90
23637;DHT22;11995;50.842;4.456;2022-11-10T01:19:06;11.20;99.90
23637;DHT22;11995;50.842;4.456;2022-11-10T01:21:33;11.30;99.90
23637;DHT22;11995;50.842;4.456;2022-11-10T01:24:00;11.30;99.90
23637;DHT22;11995;50.842;4.456;2022-11-10T01:26:27;11.30;99.90
23637;DHT22;11995;50.842;4.456;2022-11-10T01:28:54;11.20;99.90
23637;DHT22;11995;50.842;4.456;2022-11-10T01:31:22;11.20;99.90
23637;DHT22;11995;50.842;4.456;2022-11-10T01:33:49;11.20;99.90
23637;DHT22;11995;50.842;4.456;2022-11-10T01:36:16;11.20;99.90
23637;DHT22;11995;50.842;4.456;2022-11-10T01:38:44;11.20;99.90
23637;DHT22;11995;50.842;4.456;2022-11-10T01:41:12;11.20;99.90
23637;DHT22;11995;50.842;4.456;2022-11-10T01:43:41;11.00;99.90
23637;DHT22;11995;50.842;4.456;2022-11-10T01:46:10;10.90;99.90
23637;DHT22;11995;50.842;4.456;2022-11-10T01:48:59;11.00;99.90
23637;DHT22;11995;50.842;4.456;2022-11-10T01:53:35;11.20;99.90
23637;DHT22;11995;50.842;4.456;2022-11-10T01:56:03;11.20;99.90
23637;DHT22;11995;50.842;4.456;2022-11-10T01:58:32;11.20;99.90
23637;DHT22;11995;50.842;4.456;2022-11-10T02:01:04;11.10;99.90
23637;DHT22;11995;50.842;4.456;2022-11-10T02:03:34;11.20;99.90
23637;DHT22;11995;50.842;4.456;2022-11-10T02:06:02;11.30;99.90
23637;DHT22;11995;50.842;4.456;2022-11-10T02:08:30;11.30;99.90
23637;DHT22;11995;50.842;4.456;2022-11-10T02:10:57;11.20;99.90
23637;DHT22;11995;50.842;4.456;2022-11-10T02:13:26;11.20;99.90
23637;DHT22;11995;50.842;4.456;2022-11-10T02:15:53;11.20;99.90
23637;DHT22;11995;50.842;4.456;2022-11-10T02:18:20;11.10;99.90
23637;DHT22;11995;50.842;4.456;2022-11-10T02:20:47;11.10;99.90
23637;DHT22;11995;50.842;4.456;2022-11-10T02:23:41;11.10;99.90
23637;DHT22;11995;50.842;4.456;2022-11-10T02:25:43;11.10;99.90
23637;DHT22;11995;50.842;4.456;2022-11-10T02:28:10;11.00;99.90
23637;DHT22;11995;50.842;4.456;2022-11-10T02:30:37;11.00;99.90
23637;DHT22;11995;50.842;4.456;2022-11-10T02:33:04;11.10;99.90
23637;DHT22;11995;50.842;4.456;2022-11-10T02:35:32;11.00;99.90
23637;DHT22;11995;50.842;4.456;2022-11-10T02:38:00;11.10;99.90
23637;DHT22;11995;50.842;4.456;2022-11-10T02:40:28;11.10;99.90
23637;DHT22;11995;50.842;4.456;2022-11-10T02:42:56;11.20;99.90
23637;DHT22;11995;50.842;4.456;2022-11-10T02:45:25;11.20;99.90
23637;DHT22;11995;50.842;4.456;2022-11-10T02:47:53;11.20;99.90
23637;DHT22;11995;50.842;4.456;2022-11-10T02:50:20;11.20;99.90
23637;DHT22;11995;50.842;4.456;2022-11-10T02:52:47;11.00;99.90
23637;DHT22;11995;50.842;4.456;2022-11-10T02:55:15;10.90;99.90
23637;DHT22;11995;50.842;4.456;2022-11-10T02:57:44;10.90;99.90
23637;DHT22;11995;50.842;4.456;2022-11-10T03:00:11;11.00;99.90
23637;DHT22;11995;50.842;4.456;2022-11-10T03:02:39;11.00;99.90
23637;DHT22;11995;50.842;4.456;2022-11-10T03:05:06;10.90;99.90
23637;DHT22;11995;50.842;4.456;2022-11-10T03:07:33;10.90;99.90
23637;DHT22;11995;50.842;4.456;2022-11-10T03:10:03;10.90;99.90
23637;DHT22;11995;50.842;4.456;2022-11-10T03:12:30;10.90;99.90
23637;DHT22;11995;50.842;4.456;2022-11-10T03:14:59;10.90;99.90
23637;DHT22;11995;50.842;4.456;2022-11-10T03:17:27;10.90;99.90
23637;DHT22;11995;50.842;4.456;2022-11-10T03:19:55;10.70;99.90
23637;DHT22;11995;50.842;4.456;2022-11-10T03:22:22;10.80;99.90
23637;DHT22;11995;50.842;4.456;2022-11-10T03:24:49;10.80;99.90
23637;DHT22;11995;50.842;4.456;2022-11-10T03:27:20;10.80;99.90
23637;DHT22;11995;50.842;4.456;2022-11-10T03:29:48;10.80;99.90
23637;DHT22;11995;50.842;4.456;2022-11-10T03:32:15;10.70;99.90
23637;DHT22;11995;50.842;4.456;2022-11-10T03:34:42;10.70;99.90
23637;DHT22;11995;50.842;4.456;2022-11-10T03:37:09;10.90;99.90
23637;DHT22;11995;50.842;4.456;2022-11-10T03:39:37;10.80;99.90
23637;DHT22;11995;50.842;4.456;2022-11-10T03:42:04;10.70;99.90
23637;DHT22;11995;50.842;4.456;2022-11-10T03:44:31;10.60;99.90
23637;DHT22;11995;50.842;4.456;2022-11-10T03:46:58;10.70;99.90
23637;DHT22;11995;50.842;4.456;2022-11-10T03:49:27;10.70;99.90
23637;DHT22;11995;50.842;4.456;2022-11-10T03:51:53;10.70;99.90
23637;DHT22;11995;50.842;4.456;2022-11-10T03:54:20;10.70;99.90
23637;DHT22;11995;50.842;4.456;2022-11-10T03:56:47;10.60;99.90
23637;DHT22;11995;50.842;4.456;2022-11-10T03:59:14;10.60;99.90
23637;DHT22;11995;50.842;4.456;2022-11-10T04:01:41;10.60;99.90
23637;DHT22;11995;50.842;4.456;2022-11-10T04:04:08;10.50;99.90
23637;DHT22;11995;50.842;4.456;2022-11-10T04:06:37;10.50;99.90
23637;DHT22;11995;50.842;4.456;2022-11-10T04:09:22;10.50;99.90
23637;DHT22;11995;50.842;4.456;2022-11-10T04:11:50;10.50;99.90
23637;DHT22;11995;50.842;4.456;2022-11-10T04:14:35;10.50;99.90
23637;DHT22;11995;50.842;4.456;2022-11-10T04:17:20;10.50;99.90
23637;DHT22;11995;50.842;4.456;2022-11-10T04:19:46;10.50;99.90
23637;DHT22;11995;50.842;4.456;2022-11-10T04:22:13;10.40;99.90
23637;DHT22;11995;50.842;4.456;2022-11-10T04:24:42;10.40;99.90
23637;DHT22;11995;50.842;4.456;2022-11-10T04:27:08;10.40;99.90
23637;DHT22;11995;50.842;4.456;2022-11-10T04:29:35;10.40;99.90
23637;DHT22;11995;50.842;4.456;2022-11-10T04:32:02;10.40;99.90
23637;DHT22;11995;50.842;4.456;2022-11-10T04:34:29;10.50;99.90
23637;DHT22;11995;50.842;4.456;2022-11-10T04:36:56;10.60;99.90
23637;DHT22;11995;50.842;4.456;2022-11-10T04:39:22;10.50;99.90
23637;DHT22;11995;50.842;4.456;2022-11-10T04:41:49;10.50;99.90
23637;DHT22;11995;50.842;4.456;2022-11-10T04:44:16;10.60;99.90
23637;DHT22;11995;50.842;4.456;2022-11-10T04:46:43;10.50;99.90
23637;DHT22;11995;50.842;4.456;2022-11-10T04:49:10;10.50;99.90
23637;DHT22;11995;50.842;4.456;2022-11-10T04:51:37;10.30;99.90
23637;DHT22;11995;50.842;4.456;2022-11-10T04:54:05;10.50;99.90
23637;DHT22;11995;50.842;4.456;2022-11-10T04:56:32;10.50;99.90
23637;DHT22;11995;50.842;4.456;2022-11-10T04:58:59;10.50;99.90
23637;DHT22;11995;50.842;4.456;2022-11-10T05:01:26;10.50;99.90
23637;DHT22;11995;50.842;4.456;2022-11-10T05:03:53;10.50;99.90
23637;DHT22;11995;50.842;4.456;2022-11-10T05:06:21;10.40;99.90
23637;DHT22;11995;50.842;4.456;2022-11-10T05:08:48;10.50;99.90
23637;DHT22;11995;50.842;4.456;2022-11-10T05:11:17;10.50;99.90
23637;DHT22;11995;50.842;4.456;2022-11-10T05:13:48;10.50;99.90
23637;DHT22;11995;50.842;4.456;2022-11-10T05:16:16;10.40;99.90
23637;DHT22;11995;50.842;4.456;2022-11-10T05:18:43;10.50;99.90
23637;DHT22;11995;50.842;4.456;2022-11-10T05:21:12;10.40;99.90
23637;DHT22;11995;50.842;4.456;2022-11-10T05:23:39;10.30;99.90
23637;DHT22;11995;50.842;4.456;2022-11-10T05:26:10;10.30;99.90
23637;DHT22;11995;50.842;4.456;2022-11-10T05:28:40;10.30;99.90
23637;DHT22;11995;50.842;4.456;2022-11-10T05:31:15;10.20;99.90
23637;DHT22;11995;50.842;4.456;2022-11-10T05:33:42;10.10;99.90
23637;DHT22;11995;50.842;4.456;2022-11-10T05:36:10;10.10;99.90
23637;DHT22;11995;50.842;4.456;2022-11-10T05:38:40;10.10;99.90
23637;DHT22;11995;50.842;4.456;2022-11-10T05:41:09;10.20;99.90
23637;DHT22;11995;50.842;4.456;2022-11-10T05:46:16;10.10;99.90
23637;DHT22;11995;50.842;4.456;2022-11-10T05:48:43;10.10;99.90
23637;DHT22;11995;50.842;4.456;2022-11-10T05:51:10;10.00;99.90
23637;DHT22;11995;50.842;4.456;2022-11-10T05:53:37;10.10;99.90
23637;DHT22;11995;50.842;4.456;2022-11-10T05:56:04;10.10;99.90
23637;DHT22;11995;50.842;4.456;2022-11-10T05:58:31;10.00;99.90
23637;DHT22;11995;50.842;4.456;2022-11-10T06:00:58;10.10;99.90
23637;DHT22;11995;50.842;4.456;2022-11-10T06:03:25;10.10;99.90
23637;DHT22;11995;50.842;4.456;2022-11-10T06:05:52;10.10;99.90
23637;DHT22;11995;50.842;4.456;2022-11-10T06:08:18;10.10;99.90
23637;DHT22;11995;50.842;4.456;2022-11-10T06:10:45;10.20;99.90
23637;DHT22;11995;50.842;4.456;2022-11-10T06:13:18;10.10;99.90
23637;DHT22;11995;50.842;4.456;2022-11-10T06:15:45;10.20;99.90
23637;DHT22;11995;50.842;4.456;2022-11-10T06:18:12;10.10;99.90
23637;DHT22;11995;50.842;4.456;2022-11-10T06:20:39;10.10;99.90
23637;DHT22;11995;50.842;4.456;2022-11-10T06:23:06;10.00;99.90
23637;DHT22;11995;50.842;4.456;2022-11-10T06:25:34;10.00;99.90
23637;DHT22;11995;50.842;4.456;2022-11-10T06:28:02;10.00;99.90
23637;DHT22;11995;50.842;4.456;2022-11-10T06:30:30;10.00;99.90
23637;DHT22;11995;50.842;4.456;2022-11-10T06:32:58;9.90;99.90
23637;DHT22;11995;50.842;4.456;2022-11-10T06:35:25;9.90;99.90
23637;DHT22;11995;50.842;4.456;2022-11-10T06:38:02;9.80;99.90
23637;DHT22;11995;50.842;4.456;2022-11-10T06:40:30;9.80;99.90
23637;DHT22;11995;50.842;4.456;2022-11-10T06:42:57;9.80;99.90
23637;DHT22;11995;50.842;4.456;2022-11-10T06:45:24;9.80;99.90
23637;DHT22;11995;50.842;4.456;2022-11-10T06:48:06;9.70;99.90
23637;DHT22;11995;50.842;4.456;2022-11-10T06:50:34;9.70;99.90
23637;DHT22;11995;50.842;4.456;2022-11-10T06:53:01;9.80;99.90
23637;DHT22;11995;50.842;4.456;2022-11-10T06:55:28;9.90;99.90
23637;DHT22;11995;50.842;4.456;2022-11-10T06:57:55;9.80;99.90
23637;DHT22;11995;50.842;4.456;2022-11-10T07:00:22;9.70;99.90
23637;DHT22;11995;50.842;4.456;2022-11-10T07:03:09;9.70;99.90
23637;DHT22;11995;50.842;4.456;2022-11-10T07:05:36;9.60;99.90
23637;DHT22;11995;50.842;4.456;2022-11-10T07:08:08;9.70;99.90
23637;DHT22;11995;50.842;4.456;2022-11-10T07:10:30;9.60;99.90
23637;DHT22;11995;50.842;4.456;2022-11-10T07:12:58;9.60;99.90
23637;DHT22;11995;50.842;4.456;2022-11-10T07:15:25;9.60;99.90
23637;DHT22;11995;50.842;4.456;2022-11-10T07:17:53;9.50;99.90
23637;DHT22;11995;50.842;4.456;2022-11-10T07:20:20;9.50;99.90
23637;DHT22;11995;50.842;4.456;2022-11-10T07:22:47;9.50;99.90
23637;DHT22;11995;50.842;4.456;2022-11-10T07:25:14;9.60;99.90
23637;DHT22;11995;50.842;4.456;2022-11-10T07:27:41;9.60;99.90
23637;DHT22;11995;50.842;4.456;2022-11-10T07:30:08;9.70;99.90
23637;DHT22;11995;50.842;4.456;2022-11-10T07:32:35;9.70;99.90
23637;DHT22;11995;50.842;4.456;2022-11-10T07:35:01;9.80;99.90
23637;DHT22;11995;50.842;4.456;2022-11-10T07:37:28;9.80;99.90
23637;DHT22;11995;50.842;4.456;2022-11-10T07:39:55;9.80;99.90
23637;DHT22;11995;50.842;4.456;2022-11-10T07:42:22;9.90;99.90
23637;DHT22;11995;50.842;4.456;2022-11-10T07:44:49;9.90;99.90
23637;DHT22;11995;50.842;4.456;2022-11-10T07:47:17;10.00;99.90
23637;DHT22;11995;50.842;4.456;2022-11-10T07:49:43;10.00;99.90
23637;DHT22;11995;50.842;4.456;2022-11-10T07:52:10;10.00;99.90
23637;DHT22;11995;50.842;4.456;2022-11-10T07:54:37;10.10;99.90
23637;DHT22;11995;50.842;4.456;2022-11-10T07:57:04;10.10;99.90
23637;DHT22;11995;50.842;4.456;2022-11-10T07:59:30;10.30;99.90
23637;DHT22;11995;50.842;4.456;2022-11-10T08:01:57;10.40;99.90
23637;DHT22;11995;50.842;4.456;2022-11-10T08:04:24;10.50;99.90
23637;DHT22;11995;50.842;4.456;2022-11-10T08:06:51;10.40;99.90
23637;DHT22;11995;50.842;4.456;2022-11-10T08:09:20;10.50;99.90
23637;DHT22;11995;50.842;4.456;2022-11-10T08:11:47;10.50;99.90
23637;DHT22;11995;50.842;4.456;2022-11-10T08:14:13;10.50;99.90
23637;DHT22;11995;50.842;4.456;2022-11-10T08:16:40;10.60;99.90
23637;DHT22;11995;50.842;4.456;2022-11-10T08:19:07;10.70;99.90
23637;DHT22;11995;50.842;4.456;2022-11-10T08:21:34;10.70;99.90
23637;DHT22;11995;50.842;4.456;2022-11-10T08:24:01;10.60;99.90
23637;DHT22;11995;50.842;4.456;2022-11-10T08:26:27;10.70;99.90
23637;DHT22;11995;50.842;4.456;2022-11-10T08:28:54;10.80;99.90
23637;DHT22;11995;50.842;4.456;2022-11-10T08:31:21;10.90;99.90
23637;DHT22;11995;50.842;4.456;2022-11-10T08:33:48;10.90;99.90
23637;DHT22;11995;50.842;4.456;2022-11-10T08:36:15;11.10;99.90
23637;DHT22;11995;50.842;4.456;2022-11-10T08:38:42;11.00;99.90
23637;DHT22;11995;50.842;4.456;2022-11-10T08:41:08;11.00;99.90
23637;DHT22;11995;50.842;4.456;2022-11-10T08:43:35;11.10;99.90
23637;DHT22;11995;50.842;4.456;2022-11-10T08:46:02;11.10;99.90
23637;DHT22;11995;50.842;4.456;2022-11-10T08:48:29;11.10;99.90
23637;DHT22;11995;50.842;4.456;2022-11-10T08:50:57;11.20;99.90
23637;DHT22;11995;50.842;4.456;2022-11-10T08:53:25;11.30;99.90
23637;DHT22;11995;50.842;4.456;2022-11-10T08:55:51;11.30;99.90
23637;DHT22;11995;50.842;4.456;2022-11-10T08:58:20;11.30;99.90
23637;DHT22;11995;50.842;4.456;2022-11-10T09:00:48;11.40;99.90
23637;DHT22;11995;50.842;4.456;2022-11-10T09:03:16;11.40;99.90
23637;DHT22;11995;50.842;4.456;2022-11-10T09:05:44;11.30;99.90
23637;DHT22;11995;50.842;4.456;2022-11-10T09:08:11;11.50;99.90
23637;DHT22;11995;50.842;4.456;2022-11-10T09:10:39;11.70;99.90
23637;DHT22;11995;50.842;4.456;2022-11-10T09:13:06;11.80;99.90
23637;DHT22;11995;50.842;4.456;2022-11-10T09:15:34;11.80;99.90
23637;DHT22;11995;50.842;4.456;2022-11-10T09:18:03;11.90;99.90
23637;DHT22;11995;50.842;4.456;2022-11-10T09:20:30;11.90;99.90
23637;DHT22;11995;50.842;4.456;2022-11-10T09:23:08;12.00;99.90
23637;DHT22;11995;50.842;4.456;2022-11-10T09:25:35;12.00;99.90
23637;DHT22;11995;50.842;4.456;2022-11-10T09:28:03;12.10;99.90
23637;DHT22;11995;50.842;4.456;2022-11-10T09:30:30;12.10;99.90
23637;DHT22;11995;50.842;4.456;2022-11-10T09:32:57;12.10;99.90
23637;DHT22;11995;50.842;4.456;2022-11-10T09:35:25;12.20;99.90
23637;DHT22;11995;50.842;4.456;2022-11-10T09:37:52;12.00;99.90
23637;DHT22;11995;50.842;4.456;2022-11-10T09:40:21;12.20;99.90
23637;DHT22;11995;50.842;4.456;2022-11-10T09:42:48;12.30;99.90
23637;DHT22;11995;50.842;4.456;2022-11-10T09:53:28;12.60;99.90
23637;DHT22;11995;50.842;4.456;2022-11-10T09:55:47;12.50;99.90
23637;DHT22;11995;50.842;4.456;2022-11-10T09:58:14;12.60;99.90
23637;DHT22;11995;50.842;4.456;2022-11-10T10:00:47;12.70;99.90
23637;DHT22;11995;50.842;4.456;2022-11-10T10:03:16;12.70;99.90
23637;DHT22;11995;50.842;4.456;2022-11-10T10:05:46;12.80;99.90
23637;DHT22;11995;50.842;4.456;2022-11-10T10:08:18;12.80;99.90
23637;DHT22;11995;50.842;4.456;2022-11-10T10:10:44;12.90;99.90
23637;DHT22;11995;50.842;4.456;2022-11-10T10:18:37;13.20;99.90
23637;DHT22;11995;50.842;4.456;2022-11-10T10:23:34;13.10;99.90
23637;DHT22;11995;50.842;4.456;2022-11-10T10:26:01;13.10;99.90
23637;DHT22;11995;50.842;4.456;2022-11-10T10:28:30;13.00;99.90
23637;DHT22;11995;50.842;4.456;2022-11-10T10:31:00;13.10;99.90
23637;DHT22;11995;50.842;4.456;2022-11-10T10:33:27;13.10;99.90
23637;DHT22;11995;50.842;4.456;2022-11-10T10:35:54;13.30;99.90
23637;DHT22;11995;50.842;4.456;2022-11-10T10:38:35;13.40;99.90
23637;DHT22;11995;50.842;4.456;2022-11-10T10:40:52;13.60;99.90
23637;DHT22;11995;50.842;4.456;2022-11-10T10:43:21;13.60;99.90
23637;DHT22;11995;50.842;4.456;2022-11-10T10:48:29;13.70;99.90
23637;DHT22;11995;50.842;4.456;2022-11-10T10:50:56;13.70;99.90
23637;DHT22;11995;50.842;4.456;2022-11-10T10:53:23;13.70;99.90
23637;DHT22;11995;50.842;4.456;2022-11-10T10:58:25;13.90;99.90
23637;DHT22;11995;50.842;4.456;2022-11-10T11:00:58;13.90;99.90
23637;DHT22;11995;50.842;4.456;2022-11-10T11:03:25;14.00;99.90
23637;DHT22;11995;50.842;4.456;2022-11-10T11:08:29;14.20;99.90
23637;DHT22;11995;50.842;4.456;2022-11-10T11:10:56;14.10;99.90
23637;DHT22;11995;50.842;4.456;2022-11-10T11:13:25;14.20;99.90
23637;DHT22;11995;50.842;4.456;2022-11-10T11:16:04;14.20;99.90
23637;DHT22;11995;50.842;4.456;2022-11-10T11:18:30;14.00;99.90
23637;DHT22;11995;50.842;4.456;2022-11-10T11:21:03;14.10;99.90
23637;DHT22;11995;50.842;4.456;2022-11-10T11:23:44;13.90;99.90
23637;DHT22;11995;50.842;4.456;2022-11-10T11:26:16;14.00;99.90
23637;DHT22;11995;50.842;4.456;2022-11-10T11:28:43;14.20;99.90
23637;DHT22;11995;50.842;4.456;2022-11-10T11:31:20;14.10;99.90
23637;DHT22;11995;50.842;4.456;2022-11-10T11:33:51;14.20;99.90
23637;DHT22;11995;50.842;4.456;2022-11-10T11:36:27;14.30;99.90
23637;DHT22;11995;50.842;4.456;2022-11-10T11:38:53;14.40;99.90
23637;DHT22;11995;50.842;4.456;2022-11-10T11:52:06;14.40;99.90
23637;DHT22;11995;50.842;4.456;2022-11-10T11:54:47;14.20;99.90
23637;DHT22;11995;50.842;4.456;2022-11-10T12:00:07;14.40;99.90
23637;DHT22;11995;50.842;4.456;2022-11-10T12:05:11;14.30;99.90
23637;DHT22;11995;50.842;4.456;2022-11-10T12:07:43;14.30;99.90
23637;DHT22;11995;50.842;4.456;2022-11-10T12:10:14;14.30;99.90
23637;DHT22;11995;50.842;4.456;2022-11-10T12:12:46;14.40;99.90
23637;DHT22;11995;50.842;4.456;2022-11-10T12:15:16;14.40;99.90
23637;DHT22;11995;50.842;4.456;2022-11-10T12:17:49;14.40;99.90
23637;DHT22;11995;50.842;4.456;2022-11-10T12:28:20;14.50;99.90
23637;DHT22;11995;50.842;4.456;2022-11-10T12:30:46;14.40;99.90
23637;DHT22;11995;50.842;4.456;2022-11-10T12:33:19;14.50;99.90
23637;DHT22;11995;50.842;4.456;2022-11-10T12:35:41;14.60;99.90
23637;DHT22;11995;50.842;4.456;2022-11-10T12:40:52;14.60;99.90
23637;DHT22;11995;50.842;4.456;2022-11-10T12:43:25;14.70;99.90
23637;DHT22;11995;50.842;4.456;2022-11-10T12:45:50;14.70;99.90
23637;DHT22;11995;50.842;4.456;2022-11-10T12:48:16;14.70;99.90
23637;DHT22;11995;50.842;4.456;2022-11-10T12:50:54;14.70;99.90
23637;DHT22;11995;50.842;4.456;2022-11-10T12:53:31;14.70;99.90
23637;DHT22;11995;50.842;4.456;2022-11-10T12:55:54;14.80;99.90
23637;DHT22;11995;50.842;4.456;2022-11-10T12:58:22;14.80;99.90
23637;DHT22;11995;50.842;4.456;2022-11-10T13:00:59;14.80;99.90
23637;DHT22;11995;50.842;4.456;2022-11-10T13:03:28;14.80;99.90
23637;DHT22;11995;50.842;4.456;2022-11-10T13:06:00;14.90;99.90
23637;DHT22;11995;50.842;4.456;2022-11-10T13:08:28;14.90;99.90
23637;DHT22;11995;50.842;4.456;2022-11-10T13:13:43;14.80;99.90
23637;DHT22;11995;50.842;4.456;2022-11-10T13:16:08;14.80;99.90
23637;DHT22;11995;50.842;4.456;2022-11-10T13:21:04;14.70;99.90
23637;DHT22;11995;50.842;4.456;2022-11-10T13:23:31;14.60;99.90
23637;DHT22;11995;50.842;4.456;2022-11-10T13:26:04;14.70;99.90
23637;DHT22;11995;50.842;4.456;2022-11-10T13:36:40;14.70;99.90
23637;DHT22;11995;50.842;4.456;2022-11-10T13:44:26;14.90;99.90
23637;DHT22;11995;50.842;4.456;2022-11-10T13:54:45;14.90;99.90
23637;DHT22;11995;50.842;4.456;2022-11-10T13:57:13;14.90;99.90
23637;DHT22;11995;50.842;4.456;2022-11-10T13:59:47;14.80;99.90
23637;DHT22;11995;50.842;4.456;2022-11-10T14:05:03;14.60;99.90
23637;DHT22;11995;50.842;4.456;2022-11-10T14:07:35;14.70;99.90
23637;DHT22;11995;50.842;4.456;2022-11-10T14:09:59;14.60;99.90
23637;DHT22;11995;50.842;4.456;2022-11-10T14:12:34;14.80;99.90
23637;DHT22;11995;50.842;4.456;2022-11-10T14:15:04;14.80;99.90
23637;DHT22;11995;50.842;4.456;2022-11-10T14:17:34;14.70;99.90
23637;DHT22;11995;50.842;4.456;2022-11-10T14:20:02;14.70;99.90
23637;DHT22;11995;50.842;4.456;2022-11-10T14:22:39;14.50;99.90
23637;DHT22;11995;50.842;4.456;2022-11-10T14:25:16;14.60;99.90
23637;DHT22;11995;50.842;4.456;2022-11-10T14:27:41;14.50;99.90
23637;DHT22;11995;50.842;4.456;2022-11-10T14:32:38;14.40;99.90
23637;DHT22;11995;50.842;4.456;2022-11-10T14:35:05;14.50;99.90
23637;DHT22;11995;50.842;4.456;2022-11-10T14:37:32;14.60;99.90
23637;DHT22;11995;50.842;4.456;2022-11-10T14:39:59;14.70;99.90
23637;DHT22;11995;50.842;4.456;2022-11-10T14:42:37;14.70;99.90
23637;DHT22;11995;50.842;4.456;2022-11-10T14:45:17;14.50;99.90
23637;DHT22;11995;50.842;4.456;2022-11-10T14:47:38;14.50;99.90
23637;DHT22;11995;50.842;4.456;2022-11-10T14:52:38;14.40;99.90
23637;DHT22;11995;50.842;4.456;2022-11-10T14:55:07;14.30;99.90
23637;DHT22;11995;50.842;4.456;2022-11-10T14:57:34;14.30;99.90
23637;DHT22;11995;50.842;4.456;2022-11-10T15:00:04;14.20;99.90
23637;DHT22;11995;50.842;4.456;2022-11-10T15:02:30;14.20;99.90
23637;DHT22;11995;50.842;4.456;2022-11-10T15:04:57;14.10;99.90
23637;DHT22;11995;50.842;4.456;2022-11-10T15:07:30;14.20;99.90
23637;DHT22;11995;50.842;4.456;2022-11-10T15:10:02;14.20;99.90
23637;DHT22;11995;50.842;4.456;2022-11-10T15:12:28;14.00;99.90
23637;DHT22;11995;50.842;4.456;2022-11-10T15:14:56;14.10;99.90
23637;DHT22;11995;50.842;4.456;2022-11-10T15:17:41;14.10;99.90
23637;DHT22;11995;50.842;4.456;2022-11-10T15:19:52;14.00;99.90
23637;DHT22;11995;50.842;4.456;2022-11-10T15:22:21;14.00;99.90
23637;DHT22;11995;50.842;4.456;2022-11-10T15:24:48;13.90;99.90
23637;DHT22;11995;50.842;4.456;2022-11-10T15:29:49;13.80;99.90
23637;DHT22;11995;50.842;4.456;2022-11-10T15:32:17;13.80;99.90
23637;DHT22;11995;50.842;4.456;2022-11-10T15:34:46;13.80;99.90
23637;DHT22;11995;50.842;4.456;2022-11-10T15:39:48;13.70;99.90
23637;DHT22;11995;50.842;4.456;2022-11-10T15:42:21;13.80;99.90
23637;DHT22;11995;50.842;4.456;2022-11-10T15:44:51;13.70;99.90
23637;DHT22;11995;50.842;4.456;2022-11-10T15:47:19;13.60;99.90
23637;DHT22;11995;50.842;4.456;2022-11-10T15:49:46;13.60;99.90
23637;DHT22;11995;50.842;4.456;2022-11-10T15:52:28;13.50;99.90
23637;DHT22;11995;50.842;4.456;2022-11-10T15:54:55;13.50;99.90
23637;DHT22;11995;50.842;4.456;2022-11-10T15:57:21;13.30;99.90
23637;DHT22;11995;50.842;4.456;2022-11-10T15:59:49;13.20;99.90
23637;DHT22;11995;50.842;4.456;2022-11-10T16:02:22;13.10;99.90
23637;DHT22;11995;50.842;4.456;2022-11-10T16:04:50;13.10;99.90
23637;DHT22;11995;50.842;4.456;2022-11-10T16:07:20;13.20;99.90
23637;DHT22;11995;50.842;4.456;2022-11-10T16:09:47;13.10;99.90
23637;DHT22;11995;50.842;4.456;2022-11-10T16:12:16;13.20;99.90
23637;DHT22;11995;50.842;4.456;2022-11-10T16:14:45;13.00;99.90
23637;DHT22;11995;50.842;4.456;2022-11-10T16:17:11;12.90;99.90
23637;DHT22;11995;50.842;4.456;2022-11-10T16:19:38;13.00;99.90
23637;DHT22;11995;50.842;4.456;2022-11-10T16:22:07;13.10;99.90
23637;DHT22;11995;50.842;4.456;2022-11-10T16:24:34;13.10;99.90
23637;DHT22;11995;50.842;4.456;2022-11-10T16:27:10;13.00;99.90
23637;DHT22;11995;50.842;4.456;2022-11-10T16:29:34;13.00;99.90
23637;DHT22;11995;50.842;4.456;2022-11-10T16:32:01;12.90;99.90
23637;DHT22;11995;50.842;4.456;2022-11-10T16:34:28;13.00;99.90
23637;DHT22;11995;50.842;4.456;2022-11-10T16:36:55;13.00;99.90
23637;DHT22;11995;50.842;4.456;2022-11-10T16:39:22;13.00;99.90
23637;DHT22;11995;50.842;4.456;2022-11-10T16:41:50;13.00;99.90
23637;DHT22;11995;50.842;4.456;2022-11-10T16:44:16;13.00;99.90
23637;DHT22;11995;50.842;4.456;2022-11-10T16:46:46;13.00;99.90
23637;DHT22;11995;50.842;4.456;2022-11-10T16:49:30;13.00;99.90
23637;DHT22;11995;50.842;4.456;2022-11-10T16:51:54;12.80;99.90
23637;DHT22;11995;50.842;4.456;2022-11-10T16:54:21;12.80;99.90
23637;DHT22;11995;50.842;4.456;2022-11-10T16:56:49;12.70;99.90
23637;DHT22;11995;50.842;4.456;2022-11-10T16:59:15;12.60;99.90
23637;DHT22;11995;50.842;4.456;2022-11-10T17:01:42;12.50;99.90
23637;DHT22;11995;50.842;4.456;2022-11-10T17:04:10;12.40;99.90
23637;DHT22;11995;50.842;4.456;2022-11-10T17:06:38;12.30;99.90
23637;DHT22;11995;50.842;4.456;2022-11-10T17:09:10;12.40;99.90
23637;DHT22;11995;50.842;4.456;2022-11-10T17:11:33;12.40;99.90
23637;DHT22;11995;50.842;4.456;2022-11-10T17:14:00;12.40;99.90
23637;DHT22;11995;50.842;4.456;2022-11-10T17:16:28;12.30;99.90
23637;DHT22;11995;50.842;4.456;2022-11-10T17:18:56;12.30;99.90